EDT,Max TemperatureF,Mean TemperatureF,Min TemperatureF,Max Dew PointF,MeanDew PointF,Min DewpointF,Max Humidity, Mean Humidity, Min Humidity, Max Sea Level PressureIn, Mean Sea Level PressureIn, Min Sea Level PressureIn, Max VisibilityMiles, Mean VisibilityMiles, Min VisibilityMiles, Max Wind SpeedMPH, Mean Wind SpeedMPH, Max Gust SpeedMPH,PrecipitationIn, CloudCover, Events, WindDirDegrees
2008-7-1,78,64,50,53,48,42,96,63,29,30.12,30.05,30.00,10,10,10,25,7,32,0.00,0,,339
2008-7-2,82,65,48,52,48,42,96,62,28,30.17,30.11,30.06,10,10,8,13,3,17,0.00,0,,189
2008-7-3,84,67,50,58,52,48,96,65,33,30.14,30.10,30.04,10,10,8,13,3,15,0.00,1,,211
2008-7-4,84,72,59,69,63,57,100,77,54,30.13,30.07,30.00,10,5,1,17,2,18,0.62,4,Rain-Thunderstorm,350
2008-7-5,83,73,63,66,63,62,100,76,51,30.11,30.04,29.93,10,4,1,14,3,16,0.01,3,Rain,315
2008-7-6,81,73,64,66,64,61,100,77,54,30.15,30.06,29.99,10,6,0,18,3,24,1.35,5,Fog-Rain,168
2008-7-7,85,74,63,66,63,59,100,73,46,30.18,30.13,30.06,10,7,0,13,5,16,0.02,5,Fog-Rain,154
2008-7-8,80,73,65,70,66,62,93,80,67,30.14,30.10,30.06,10,8,6,15,2,20,0.01,1,Rain,172
2008-7-9,85,75,64,69,66,64,100,78,55,30.15,30.08,30.03,10,7,1,20,4,24,0.54,4,Rain-Thunderstorm,301
2008-7-10,78,71,64,70,67,64,100,87,74,30.19,30.09,30.03,10,8,1,13,2,15,0.15,4,Rain,321
2008-7-11,85,76,66,70,65,57,100,72,43,30.16,30.10,30.04,10,9,5,18,7,23,T,5,Rain,329
2008-7-12,88,75,61,67,63,58,100,68,36,30.15,30.09,30.02,10,9,4,13,4,17,0.00,0,,170
2008-7-13,82,73,63,70,66,62,100,81,62,30.03,29.93,29.83,10,7,0,17,4,20,0.66,4,Fog-Rain,215
2008-7-14,82,74,65,67,57,45,93,60,26,30.00,29.91,29.86,10,10,8,16,8,22,0.00,1,,343
2008-7-15,84,72,60,58,55,50,84,58,32,30.14,30.07,30.00,10,10,10,16,5,18,0.00,4,,331
2008-7-16,83,71,58,63,58,56,90,66,42,30.21,30.17,30.13,10,10,6,9,1,14,0.00,2,,150
2008-7-17,83,70,56,61,57,53,100,69,37,30.27,30.19,30.11,10,6,0,9,2,13,0.00,0,Fog,118
2008-7-18,84,70,55,63,58,54,100,70,40,30.20,30.10,30.04,10,8,2,10,3,14,T,1,,107
2008-7-19,89,74,59,63,59,47,100,63,25,30.16,30.07,30.01,10,8,2,16,3,18,0.00,0,,329
2008-7-20,89,74,59,64,60,57,96,67,37,30.10,30.05,30.00,10,7,3,16,5,20,0.00,0,,331
2008-7-21,93,81,69,67,63,59,79,58,36,30.02,29.99,29.93,10,9,6,20,8,24,0.00,0,,337
2008-7-22,90,76,61,64,60,56,90,62,34,30.03,29.99,29.93,10,10,10,18,7,21,0.00,0,,335
2008-7-23,85,75,65,65,61,53,87,65,43,30.01,29.97,29.92,10,10,9,21,8,26,0.00,1,,339
2008-7-24,83,69,55,58,53,46,100,65,30,30.11,30.06,29.99,10,10,8,12,5,17,0.00,1,,308
2008-7-25,80,72,63,63,59,55,84,66,48,30.16,30.12,30.09,10,10,10,13,3,15,0.00,5,,165
2008-7-26,83,74,65,69,66,62,100,78,55,30.15,30.05,29.93,10,7,2,10,2,13,0.13,5,Rain,210
2008-7-27,90,78,65,68,63,56,100,67,34,30.03,29.94,29.86,10,8,2,17,7,24,0.00,1,,338
2008-7-28,89,75,60,66,62,58,100,68,36,29.99,29.94,29.89,10,9,5,20,7,23,0.01,1,Rain,236
2008-7-29,87,77,66,72,67,64,100,74,48,30.07,29.98,29.91,10,7,0,16,4,18,0.48,5,Fog-Rain,299
2008-7-30,91,78,65,70,66,61,100,69,38,30.01,29.93,29.81,10,6,0,16,5,18,0.00,2,Fog,328
2008-7-31,85,76,66,71,67,66,100,78,55,29.90,29.82,29.75,10,10,7,20,6,25,0.04,1,,335